Time;durP1;ratioP1;P1;durP2;ratioP2;P2;SDS_P1;SDS_P2;PMS_P1;PMS_P2;Temp;Humidity;BMP_temperature;BMP_pressure;BME280_temperature;BME280_humidity;BME280_pressure;Samples;Min_cycle;Max_cycle;Signal;HPM_P1;HPM_P2
2022/03/27 00:00:13;;;;;;;;;;;10.90;91.10;;;;;;6213051;23;20366;-87
2022/03/27 00:02:57;;;;;;;;;;;10.80;91.20;;;;;;6187707;23;20025;-88
2022/03/27 00:05:26;;;;;;;;;;;10.80;91.30;;;;;;6213024;23;19988;-88
2022/03/27 00:07:51;;;;;;;;;;;10.80;91.40;;;;;;6213075;23;19912;-88
2022/03/27 00:10:24;;;;;;;;;;;10.80;91.40;;;;;;6212743;23;19908;-88
2022/03/27 00:13:00;;;;;;;;;;;10.80;91.50;;;;;;6213014;23;19905;-88
2022/03/27 00:15:28;;;;;;;;;;;10.70;91.50;;;;;;6212323;23;19904;-88
2022/03/27 00:17:56;;;;;;;;;;;10.70;91.50;;;;;;6187434;23;19939;-88
2022/03/27 00:20:22;;;;;;;;;;;10.70;91.60;;;;;;6187500;23;19908;-88
2022/03/27 00:22:50;;;;;;;;;;;10.70;91.60;;;;;;6212066;23;19908;-88
2022/03/27 00:25:18;;;;;;;;;;;10.70;91.60;;;;;;6187396;23;19935;-88
2022/03/27 00:27:46;;;;;;;;;;;10.70;91.60;;;;;;6187050;23;20058;-88
2022/03/27 00:30:12;;;;;;;;;;;10.70;91.70;;;;;;6187472;23;19932;-88
2022/03/27 00:32:38;;;;;;;;;;;10.70;91.90;;;;;;6211892;23;19970;-88
2022/03/27 00:35:14;;;;;;;;;;;10.60;92.00;;;;;;6212044;23;19908;-87
2022/03/27 00:37:40;;;;;;;;;;;10.60;92.00;;;;;;6212614;23;19904;-88
2022/03/27 00:40:09;;;;;;;;;;;10.60;92.30;;;;;;6212249;23;19966;-88
2022/03/27 00:42:34;;;;;;;;;;;10.50;92.40;;;;;;6212340;23;19928;-88
2022/03/27 00:45:02;;;;;;;;;;;10.50;92.60;;;;;;6212334;23;19979;-88
2022/03/27 00:47:28;;;;;;;;;;;10.40;92.60;;;;;;6212231;23;19905;-88
2022/03/27 00:50:01;;;;;;;;;;;10.40;92.60;;;;;;6188973;23;19905;-87
2022/03/27 00:52:37;;;;;;;;;;;10.40;92.70;;;;;;6188940;23;19921;-88
2022/03/27 00:55:13;;;;;;;;;;;10.40;92.80;;;;;;6212960;23;19986;-88
2022/03/27 00:57:41;;;;;;;;;;;10.40;92.80;;;;;;6213219;23;19919;-87
2022/03/27 01:00:20;;;;;;;;;;;10.40;92.90;;;;;;6221805;23;19928;-87
2022/03/27 01:02:46;;;;;;;;;;;10.30;92.80;;;;;;6237907;23;19932;-88
2022/03/27 01:05:23;;;;;;;;;;;10.30;92.80;;;;;;6237083;23;19912;-88
2022/03/27 01:07:56;;;;;;;;;;;10.40;92.70;;;;;;6232070;23;19943;-87
2022/03/27 01:10:50;;;;;;;;;;;10.40;92.70;;;;;;6215806;23;20307;-88
2022/03/27 01:13:23;;;;;;;;;;;10.40;92.70;;;;;;6229671;23;19927;-88
2022/03/27 01:16:08;;;;;;;;;;;;;;;;;;;;;
2022/03/27 01:18:42;;;;;;;;;;;10.40;92.70;;;;;;6188339;23;19987;-88
2022/03/27 01:21:13;;;;;;;;;;;10.40;92.70;;;;;;6187833;23;19987;-89
2022/03/27 01:23:41;;;;;;;;;;;10.40;92.70;;;;;;6211894;23;19909;-87
2022/03/27 01:26:14;;;;;;;;;;;10.40;92.70;;;;;;6211876;23;20072;-88
2022/03/27 01:28:45;;;;;;;;;;;10.40;92.80;;;;;;6187152;23;19987;-87
2022/03/27 01:31:20;;;;;;;;;;;10.40;92.90;;;;;;6188694;23;19911;-88
2022/03/27 01:33:54;;;;;;;;;;;10.30;92.90;;;;;;6188051;23;19926;-87
2022/03/27 01:36:31;;;;;;;;;;;10.30;92.90;;;;;;6211613;23;19986;-89
2022/03/27 01:39:15;;;;;;;;;;;10.40;93.00;;;;;;6211431;23;19947;-88
2022/03/27 01:41:51;;;;;;;;;;;10.30;93.00;;;;;;6211741;23;19987;-87
2022/03/27 01:44:27;;;;;;;;;;;10.30;93.20;;;;;;6212235;23;19919;-87
2022/03/27 01:47:02;;;;;;;;;;;10.30;93.20;;;;;;6188205;23;19978;-87
2022/03/27 01:49:35;;;;;;;;;;;10.30;93.20;;;;;;6211638;23;19905;-88
2022/03/27 01:52:09;;;;;;;;;;;10.30;93.30;;;;;;6211798;23;19904;-87
2022/03/27 01:54:37;;;;;;;;;;;10.30;93.30;;;;;;6190598;23;19983;-89
2022/03/27 01:57:13;;;;;;;;;;;;;;;;;;;;;
2022/03/27 01:59:47;;;;;;;;;;;10.30;93.20;;;;;;6217964;23;20281;-88
2022/03/27 02:02:37;;;;;;;;;;;10.40;93.20;;;;;;6191854;23;19904;-88
2022/03/27 02:05:02;;;;;;;;;;;10.40;93.40;;;;;;6214440;23;20249;-88
2022/03/27 02:07:36;;;;;;;;;;;10.40;93.00;;;;;;6191378;23;19904;-88
2022/03/27 02:10:02;;;;;;;;;;;10.40;92.90;;;;;;6191322;23;19904;-89
2022/03/27 02:12:44;;;;;;;;;;;;;;;;;;;;;
2022/03/27 02:15:15;;;;;;;;;;;10.40;92.90;;;;;;6218318;23;19979;-88
2022/03/27 02:17:46;;;;;;;;;;;10.30;92.90;;;;;;6191024;23;19910;-88
2022/03/27 02:20:14;;;;;;;;;;;10.30;92.90;;;;;;6191751;23;19979;-88
2022/03/27 02:22:48;;;;;;;;;;;10.30;92.90;;;;;;6191003;23;19904;-91
2022/03/27 02:25:21;;;;;;;;;;;10.20;92.80;;;;;;6191748;23;19908;-89
2022/03/27 02:27:47;;;;;;;;;;;10.20;92.90;;;;;;6191205;23;19993;-88
2022/03/27 02:30:25;;;;;;;;;;;10.20;92.80;;;;;;6191653;23;19904;-88
2022/03/27 02:32:53;;;;;;;;;;;10.20;92.90;;;;;;6192373;23;19904;-87
2022/03/27 02:35:19;;;;;;;;;;;10.10;92.90;;;;;;6192763;23;19934;-88
2022/03/27 02:38:05;;;;;;;;;;;10.00;93.00;;;;;;6212582;23;19904;-90
2022/03/27 02:40:47;;;;;;;;;;;;;;;;;;;;;
2022/03/27 02:43:13;;;;;;;;;;;10.00;93.10;;;;;;6243696;23;19908;-88
2022/03/27 02:45:39;;;;;;;;;;;10.00;93.00;;;;;;6217508;23;19919;-87
2022/03/27 02:48:07;;;;;;;;;;;10.00;93.00;;;;;;6196676;23;19942;-87
2022/03/27 02:50:40;;;;;;;;;;;10.00;93.00;;;;;;6191845;23;19934;-88
2022/03/27 02:53:19;;;;;;;;;;;;;;;;;;;;;
2022/03/27 02:55:50;;;;;;;;;;;9.90;93.10;;;;;;6217405;23;19991;-88
2022/03/27 02:58:18;;;;;;;;;;;9.90;93.20;;;;;;6191416;23;20325;-88
2022/03/27 03:00:56;;;;;;;;;;;;;;;;;;;;;
2022/03/27 03:03:28;;;;;;;;;;;9.90;93.30;;;;;;6193276;23;19956;-88
2022/03/27 03:06:05;;;;;;;;;;;9.80;93.30;;;;;;6166413;23;19912;-88
2022/03/27 03:08:38;;;;;;;;;;;9.80;93.30;;;;;;6191238;23;19908;-88
2022/03/27 03:11:04;;;;;;;;;;;9.80;93.30;;;;;;6190775;23;20307;-87
2022/03/27 03:13:47;;;;;;;;;;;;;;;;;;;;;
2022/03/27 03:16:16;;;;;;;;;;;9.80;93.10;;;;;;6193705;23;19983;-88
2022/03/27 03:18:44;;;;;;;;;;;9.70;93.10;;;;;;6191286;23;19904;-88
2022/03/27 03:21:10;;;;;;;;;;;9.70;93.00;;;;;;6190749;23;19904;-87
2022/03/27 03:23:46;;;;;;;;;;;;;;;;;;;;;
2022/03/27 03:26:17;;;;;;;;;;;9.50;93.20;;;;;;6217239;23;19990;-88
2022/03/27 03:28:51;;;;;;;;;;;9.30;93.30;;;;;;6217834;23;19932;-88
2022/03/27 03:31:19;;;;;;;;;;;9.30;93.40;;;;;;6191309;23;20354;-87
2022/03/27 03:34:02;;;;;;;;;;;9.30;93.40;;;;;;6191326;23;19904;-88
2022/03/27 03:36:30;;;;;;;;;;;9.30;93.40;;;;;;6167960;23;20354;-87
2022/03/27 03:38:56;;;;;;;;;;;9.30;93.40;;;;;;6190775;23;20364;-88
2022/03/27 03:41:28;;;;;;;;;;;9.40;93.40;;;;;;6190454;23;19936;-87
2022/03/27 03:43:53;;;;;;;;;;;9.40;93.30;;;;;;6190539;23;19908;-87
2022/03/27 03:46:29;;;;;;;;;;;;;;;;;;;;;
2022/03/27 03:49:04;;;;;;;;;;;9.40;93.30;;;;;;6217748;23;19991;-87
2022/03/27 03:51:33;;;;;;;;;;;9.40;93.30;;;;;;6190884;23;19915;-87
2022/03/27 03:54:19;;;;;;;;;;;9.40;93.40;;;;;;6165304;23;19926;-87
2022/03/27 03:56:54;;;;;;;;;;;9.30;93.50;;;;;;6194583;23;19974;-86
2022/03/27 03:59:22;;;;;;;;;;;9.20;93.70;;;;;;6168340;23;19908;-87
2022/03/27 04:01:53;;;;;;;;;;;9.20;93.80;;;;;;6167781;23;20269;-86
2022/03/27 04:04:21;;;;;;;;;;;9.10;93.80;;;;;;6168511;23;19943;-87
2022/03/27 04:06:49;;;;;;;;;;;9.10;93.90;;;;;;6193178;23;19912;-87
2022/03/27 04:09:17;;;;;;;;;;;9.20;93.90;;;;;;6193586;23;19904;-87
2022/03/27 04:11:45;;;;;;;;;;;9.20;93.90;;;;;;6197877;23;19904;-86
2022/03/27 04:14:21;;;;;;;;;;;9.20;93.90;;;;;;6219435;23;19931;-87
2022/03/27 04:16:48;;;;;;;;;;;9.20;93.90;;;;;;6196425;23;19944;-86
2022/03/27 04:19:14;;;;;;;;;;;9.20;93.90;;;;;;6218940;23;19935;-86
2022/03/27 04:21:49;;;;;;;;;;;9.20;93.90;;;;;;6216058;23;19907;-81
2022/03/27 04:24:23;;;;;;;;;;;9.30;94.00;;;;;;6192523;23;20330;-86
2022/03/27 04:27:09;;;;;;;;;;;9.30;93.90;;;;;;6168754;23;19912;-88
2022/03/27 04:29:35;;;;;;;;;;;9.30;93.80;;;;;;6192008;23;19983;-88
2022/03/27 04:32:16;;;;;;;;;;;;;;;;;;;;;
2022/03/27 04:34:42;;;;;;;;;;;9.20;93.80;;;;;;6218936;23;19984;-87
2022/03/27 04:37:13;;;;;;;;;;;9.10;93.90;;;;;;6192302;23;19935;-87
2022/03/27 04:39:41;;;;;;;;;;;9.10;93.90;;;;;;6192159;23;19967;-86
2022/03/27 04:42:12;;;;;;;;;;;9.00;94.00;;;;;;6167462;23;19938;-87
2022/03/27 04:44:38;;;;;;;;;;;9.00;94.00;;;;;;6166982;23;19916;-87
2022/03/27 04:47:14;;;;;;;;;;;9.00;94.10;;;;;;6216798;23;20229;-86
2022/03/27 04:49:55;;;;;;;;;;;9.00;94.00;;;;;;6191992;23;19959;-87
2022/03/27 04:52:27;;;;;;;;;;;8.90;93.90;;;;;;6166689;23;19915;-87
2022/03/27 04:55:03;;;;;;;;;;;;;;;;;;;;;
2022/03/27 04:57:33;;;;;;;;;;;8.90;93.80;;;;;;6218614;23;20381;-87
2022/03/27 05:00:10;;;;;;;;;;;8.90;93.80;;;;;;6218638;23;19904;-87
2022/03/27 05:02:39;;;;;;;;;;;8.90;93.70;;;;;;6192359;23;20234;-87
2022/03/27 05:05:10;;;;;;;;;;;8.90;93.60;;;;;;6191285;23;20235;-87
2022/03/27 05:07:54;;;;;;;;;;;8.90;93.50;;;;;;6191588;23;19904;-86
2022/03/27 05:10:22;;;;;;;;;;;8.90;93.40;;;;;;6190930;23;19904;-87
2022/03/27 05:12:48;;;;;;;;;;;8.80;93.30;;;;;;6191721;23;19907;-87
2022/03/27 05:15:13;;;;;;;;;;;8.80;93.30;;;;;;6191342;23;19915;-87
2022/03/27 05:18:02;;;;;;;;;;;8.70;93.10;;;;;;6191383;23;19904;-87
2022/03/27 05:20:36;;;;;;;;;;;8.70;93.10;;;;;;6191154;23;19939;-87
2022/03/27 05:23:04;;;;;;;;;;;8.60;93.10;;;;;;6191908;23;19915;-87
2022/03/27 05:25:50;;;;;;;;;;;;;;;;;;;;;
2022/03/27 05:28:20;;;;;;;;;;;8.70;93.00;;;;;;6196442;23;19908;-87
2022/03/27 05:30:52;;;;;;;;;;;8.60;93.00;;;;;;6166412;23;19915;-87
2022/03/27 05:33:41;;;;;;;;;;;8.60;93.00;;;;;;6191448;23;20311;-87
2022/03/27 05:36:12;;;;;;;;;;;8.50;93.00;;;;;;6192301;23;19911;-88
2022/03/27 05:38:41;;;;;;;;;;;8.50;93.00;;;;;;6191236;23;19908;-88
2022/03/27 05:41:12;;;;;;;;;;;8.50;93.00;;;;;;6192122;23;19910;-90
2022/03/27 05:43:38;;;;;;;;;;;8.40;93.00;;;;;;6192466;23;19912;-87
2022/03/27 05:46:10;;;;;;;;;;;8.40;93.00;;;;;;6175083;23;19896;-89
2022/03/27 05:48:36;;;;;;;;;;;8.40;92.90;;;;;;6218949;23;19892;-85
2022/03/27 05:51:21;;;;;;;;;;;8.30;92.90;;;;;;6218628;23;19936;-86
2022/03/27 05:53:49;;;;;;;;;;;8.30;92.90;;;;;;6217454;23;19943;-86
2022/03/27 05:56:18;;;;;;;;;;;8.20;92.90;;;;;;6201301;23;19904;-86
2022/03/27 05:58:43;;;;;;;;;;;8.20;92.90;;;;;;6191582;23;20330;-86
2022/03/27 06:01:17;;;;;;;;;;;8.20;92.80;;;;;;6191278;23;19958;-89
2022/03/27 06:03:42;;;;;;;;;;;8.20;92.70;;;;;;6166087;23;20322;-85
2022/03/27 06:06:08;;;;;;;;;;;8.20;92.70;;;;;;6191171;23;19908;-85
2022/03/27 06:08:57;;;;;;;;;;;8.30;92.70;;;;;;6191109;23;20323;-86
2022/03/27 06:11:27;;;;;;;;;;;8.20;92.50;;;;;;6198601;23;19904;-86
2022/03/27 06:13:53;;;;;;;;;;;8.30;92.50;;;;;;6191505;23;19911;-86
2022/03/27 06:16:18;;;;;;;;;;;8.30;92.40;;;;;;6191597;23;20231;-86
2022/03/27 06:18:46;;;;;;;;;;;8.30;92.40;;;;;;6190982;23;19911;-87
2022/03/27 06:21:13;;;;;;;;;;;8.30;92.40;;;;;;6167000;23;19908;-87
2022/03/27 06:23:41;;;;;;;;;;;8.30;92.30;;;;;;6191398;23;19939;-87
2022/03/27 06:26:32;;;;;;;;;;;8.40;92.30;;;;;;6190901;23;19908;-88
2022/03/27 06:29:00;;;;;;;;;;;8.40;92.30;;;;;;6191378;23;19915;-87
2022/03/27 06:31:38;;;;;;;;;;;8.40;92.20;;;;;;6166232;23;20323;-87
2022/03/27 06:40:27;;;;;;;;;;;;;;;;;;;;;
2022/03/27 06:45:49;;;;;;;;;;;;;;;;;;;;;
2022/03/27 06:48:17;;;;;;;;;;;8.40;91.90;;;;;;6217741;23;19975;-90
2022/03/27 06:50:44;;;;;;;;;;;8.30;91.90;;;;;;6166062;23;20349;-87
2022/03/27 06:53:11;;;;;;;;;;;8.30;91.90;;;;;;6217190;23;19915;-87
2022/03/27 06:55:38;;;;;;;;;;;8.20;91.90;;;;;;6190904;23;19957;-87
2022/03/27 06:58:07;;;;;;;;;;;8.20;91.90;;;;;;6166068;23;19914;-87
2022/03/27 07:03:19;;;;;;;;;;;8.20;92.10;;;;;;6217416;23;20337;-87
2022/03/27 07:05:47;;;;;;;;;;;8.10;92.10;;;;;;6189743;23;19911;-87
2022/03/27 07:08:21;;;;;;;;;;;8.20;92.10;;;;;;6166079;23;19986;-87
2022/03/27 07:10:50;;;;;;;;;;;8.20;92.10;;;;;;6191662;23;19927;-87
2022/03/27 07:13:25;;;;;;;;;;;8.20;92.10;;;;;;6219374;23;19912;-86
2022/03/27 07:15:53;;;;;;;;;;;8.30;92.00;;;;;;6194228;23;19904;-88
2022/03/27 07:18:32;;;;;;;;;;;;;;;;;;;;;
2022/03/27 07:23:46;;;;;;;;;;;8.30;92.10;;;;;;6224869;23;19908;-89
2022/03/27 07:26:41;;;;;;;;;;;8.30;92.00;;;;;;6213971;23;19908;-89
2022/03/27 07:29:20;;;;;;;;;;;;;;;;;;;;;
2022/03/27 07:32:06;;;;;;;;;;;8.40;91.90;;;;;;6195073;23;19942;-89
2022/03/27 07:34:40;;;;;;;;;;;8.30;91.70;;;;;;6192112;23;19904;-91
2022/03/27 07:37:49;;;;;;;;;;;8.30;91.80;;;;;;6193415;23;20306;-90
2022/03/27 07:52:36;;;;;;;;;;;8.50;91.40;;;;;;6079757;23;19956;-89
2022/03/27 07:55:11;;;;;;;;;;;8.40;91.30;;;;;;6173192;23;19970;-87
2022/03/27 07:57:57;;;;;;;;;;;8.50;91.40;;;;;;6220315;23;19944;-91
2022/03/27 08:01:17;;;;;;;;;;;;;;;;;;;;;
2022/03/27 08:03:43;;;;;;;;;;;8.50;91.30;;;;;;6215897;23;19958;-88
2022/03/27 08:09:12;;;;;;;;;;;8.50;91.30;;;;;;6175403;23;19911;-88
2022/03/27 08:24:15;;;;;;;;;;;;;;;;;;;;;
2022/03/27 08:27:15;;;;;;;;;;;;;;;;;;;;;
2022/03/27 08:33:53;;;;;;;;;;;;;;;;;;;;;
2022/03/27 08:45:50;;;;;;;;;;;9.20;90.30;;;;;;6128564;23;20003;-90
2022/03/27 08:48:54;;;;;;;;;;;;;;;;;;;;;
2022/03/27 08:52:04;;;;;;;;;;;;;;;;;;;;;
2022/03/27 08:54:41;;;;;;;;;;;9.30;90.10;;;;;;6154426;23;19921;-91
2022/03/27 08:57:42;;;;;;;;;;;9.40;90.00;;;;;;6129847;23;19920;-92
2022/03/27 09:00:36;;;;;;;;;;;9.50;89.60;;;;;;6153804;23;19967;-90
2022/03/27 09:03:11;;;;;;;;;;;9.50;89.00;;;;;;6135449;23;19908;-91
2022/03/27 09:09:07;;;;;;;;;;;9.70;88.80;;;;;;6188409;23;19928;-91
2022/03/27 09:11:37;;;;;;;;;;;9.80;88.90;;;;;;6219036;23;20234;-92
2022/03/27 09:14:33;;;;;;;;;;;9.80;87.90;;;;;;6168969;23;19931;-92
2022/03/27 09:17:23;;;;;;;;;;;;;;;;;;;;;
2022/03/27 09:19:58;;;;;;;;;;;10.10;87.70;;;;;;6219739;23;20383;-91
2022/03/27 09:29:35;;;;;;;;;;;10.30;86.10;;;;;;6093451;23;20332;-91
2022/03/27 09:38:34;;;;;;;;;;;;;;;;;;;;;
2022/03/27 10:07:33;;;;;;;;;;;11.20;81.30;;;;;;6058306;23;19910;-93
2022/03/27 10:40:10;;;;;;;;;;;11.90;77.40;;;;;;6187146;22;20242;-90
2022/03/27 10:48:51;;;;;;;;;;;12.10;77.70;;;;;;6216025;23;20335;-91
2022/03/27 10:51:36;;;;;;;;;;;;;;;;;;;;;
2022/03/27 10:57:30;;;;;;;;;;;;;;;;;;;;;
2022/03/27 11:00:14;;;;;;;;;;;12.40;76.60;;;;;;6210152;23;19915;-87
2022/03/27 11:02:48;;;;;;;;;;;12.40;76.10;;;;;;6123928;23;19904;-93
2022/03/27 11:05:40;;;;;;;;;;;;;;;;;;;;;
2022/03/27 11:08:17;;;;;;;;;;;12.60;75.20;;;;;;6218618;23;19955;-91
2022/03/27 11:11:27;;;;;;;;;;;12.60;74.40;;;;;;6192175;23;19936;-90
2022/03/27 11:13:50;;;;;;;;;;;;;;;;;;;;;
2022/03/27 11:17:13;;;;;;;;;;;;;;;;;;;;;
2022/03/27 12:12:22;;;;;;;;;;;;;;;;;;;;;
2022/03/27 12:34:31;;;;;;;;;;;;;;;;;;;;;
2022/03/27 12:47:14;;;;;;;;;;;;;;;;;;;;;
2022/03/27 13:15:35;;;;;;;;;;;;;;;;;;;;;
2022/03/27 14:33:30;;;;;;;;;;;;;;;;;;;;;
2022/03/27 14:36:20;;;;;;;;;;;;;;;;;;;;;
2022/03/27 14:39:43;;;;;;;;;;;;;;;;;;;;;
2022/03/27 14:48:59;;;;;;;;;;;16.20;64.30;;;;;;6115831;23;19905;-91
2022/03/27 14:57:58;;;;;;;;;;;;;;;;;;;;;
2022/03/27 15:06:18;;;;;;;;;;;16.20;64.30;;;;;;6104173;23;19957;-93
2022/03/27 15:11:49;;;;;;;;;;;16.30;64.60;;;;;;5986074;24;19915;-94
2022/03/27 15:15:03;;;;;;;;;;;;;;;;;;;;;
2022/03/27 15:17:58;;;;;;;;;;;16.30;63.50;;;;;;6010820;23;19942;-95
2022/03/27 15:20:38;;;;;;;;;;;16.40;63.10;;;;;;5989545;23;20388;-91
2022/03/27 15:23:33;;;;;;;;;;;;;;;;;;;;;
2022/03/27 15:26:18;;;;;;;;;;;;;;;;;;;;;
2022/03/27 15:29:13;;;;;;;;;;;16.60;63.20;;;;;;6098121;23;20408;-91
2022/03/27 15:35:04;;;;;;;;;;;16.60;63.10;;;;;;6127337;23;20362;-93
2022/03/27 15:37:40;;;;;;;;;;;16.60;63.20;;;;;;6161980;23;19912;-91
2022/03/27 15:40:23;;;;;;;;;;;;;;;;;;;;;
2022/03/27 15:42:53;;;;;;;;;;;16.60;63.50;;;;;;6164814;23;19999;-93
2022/03/27 15:45:29;;;;;;;;;;;16.60;63.70;;;;;;6154272;23;19955;-92
2022/03/27 15:47:57;;;;;;;;;;;16.50;63.80;;;;;;6199908;22;19888;-92
2022/03/27 15:50:36;;;;;;;;;;;16.50;63.60;;;;;;6218198;22;19932;-91
2022/03/27 15:53:08;;;;;;;;;;;16.50;63.70;;;;;;6209387;22;20330;-91
2022/03/27 16:05:30;;;;;;;;;;;;;;;;;;;;;
2022/03/27 16:08:20;;;;;;;;;;;;;;;;;;;;;
2022/03/27 16:11:08;;;;;;;;;;;;;;;;;;;;;
2022/03/27 16:13:44;;;;;;;;;;;16.30;64.10;;;;;;6190982;23;19975;-91
2022/03/27 16:16:27;;;;;;;;;;;16.30;63.80;;;;;;6214211;23;19908;-92
2022/03/27 16:19:16;;;;;;;;;;;16.30;64.00;;;;;;6214814;23;19955;-91
2022/03/27 16:21:43;;;;;;;;;;;16.30;64.10;;;;;;6189208;23;19904;-92
2022/03/27 16:24:43;;;;;;;;;;;16.30;64.10;;;;;;6213575;23;19912;-90
2022/03/27 16:27:39;;;;;;;;;;;16.30;64.40;;;;;;6189397;23;19912;-92
2022/03/27 16:30:28;;;;;;;;;;;16.20;64.20;;;;;;6188489;23;19904;-91
2022/03/27 16:32:58;;;;;;;;;;;16.20;64.50;;;;;;6214214;23;20234;-89
2022/03/27 16:35:40;;;;;;;;;;;;;;;;;;;;;
2022/03/27 16:38:36;;;;;;;;;;;;;;;;;;;;;
2022/03/27 16:41:36;;;;;;;;;;;16.10;64.90;;;;;;6190581;23;20004;-93
2022/03/27 16:44:28;;;;;;;;;;;;;;;;;;;;;
2022/03/27 16:47:06;;;;;;;;;;;16.00;64.80;;;;;;6190346;23;19952;-92
2022/03/27 16:53:06;;;;;;;;;;;;;;;;;;;;;
2022/03/27 16:56:21;;;;;;;;;;;;;;;;;;;;;
2022/03/27 16:58:55;;;;;;;;;;;15.90;65.10;;;;;;6187944;23;19935;-92
2022/03/27 17:05:14;;;;;;;;;;;15.70;65.00;;;;;;6172626;23;19943;-93
2022/03/27 17:14:14;;;;;;;;;;;;;;;;;;;;;
2022/03/27 17:17:05;;;;;;;;;;;15.60;66.00;;;;;;6197294;23;19936;-91
2022/03/27 17:19:42;;;;;;;;;;;15.50;66.30;;;;;;6109902;23;19909;-91
2022/03/27 17:22:38;;;;;;;;;;;;;;;;;;;;;
2022/03/27 17:28:56;;;;;;;;;;;15.40;66.70;;;;;;6110793;23;20328;-90
2022/03/27 17:31:33;;;;;;;;;;;15.40;66.80;;;;;;6099522;23;20025;-91
2022/03/27 17:34:10;;;;;;;;;;;15.30;66.90;;;;;;6094608;23;19905;-91
2022/03/27 17:37:51;;;;;;;;;;;;;;;;;;;;;
2022/03/27 17:40:04;;;;;;;;;;;15.30;67.00;;;;;;6113237;23;19920;-87
2022/03/27 17:52:35;;;;;;;;;;;;;;;;;;;;;
2022/03/27 17:55:25;;;;;;;;;;;;;;;;;;;;;
2022/03/27 18:00:50;;;;;;;;;;;15.00;67.90;;;;;;6209416;23;19955;-90
2022/03/27 18:03:43;;;;;;;;;;;15.00;68.10;;;;;;6197848;23;19941;-91
2022/03/27 18:06:08;;;;;;;;;;;14.90;68.20;;;;;;6225845;23;19913;-89
2022/03/27 18:11:44;;;;;;;;;;;14.80;68.60;;;;;;6204437;23;19911;-87
2022/03/27 18:14:47;;;;;;;;;;;14.70;68.90;;;;;;6203789;23;20270;-90
2022/03/27 18:17:18;;;;;;;;;;;14.70;69.00;;;;;;6228262;23;19904;-90
2022/03/27 18:19:46;;;;;;;;;;;14.70;69.10;;;;;;6210546;23;19944;-90
2022/03/27 18:22:23;;;;;;;;;;;14.60;69.20;;;;;;6211642;23;19904;-89
2022/03/27 18:25:16;;;;;;;;;;;14.60;69.30;;;;;;6208685;23;19908;-88
2022/03/27 18:28:00;;;;;;;;;;;;;;;;;;;;;
2022/03/27 18:30:41;;;;;;;;;;;14.50;69.60;;;;;;6240893;23;19908;-92
2022/03/27 18:33:27;;;;;;;;;;;;;;;;;;;;;
2022/03/27 18:39:10;;;;;;;;;;;;;;;;;;;;;
2022/03/27 18:41:59;;;;;;;;;;;14.40;70.20;;;;;;6225339;23;20306;-94
2022/03/27 18:54:22;;;;;;;;;;;14.10;71.10;;;;;;6168443;23;20326;-95
2022/03/27 19:00:07;;;;;;;;;;;14.00;71.40;;;;;;6154967;23;19959;-94
2022/03/27 19:03:19;;;;;;;;;;;;;;;;;;;;;
2022/03/27 19:06:30;;;;;;;;;;;13.90;72.00;;;;;;6102231;23;19976;-95
2022/03/27 19:09:21;;;;;;;;;;;;;;;;;;;;;
2022/03/27 19:12:31;;;;;;;;;;;;;;;;;;;;;
2022/03/27 19:24:26;;;;;;;;;;;13.70;72.60;;;;;;6217683;22;19900;-91
2022/03/27 19:32:35;;;;;;;;;;;13.50;72.80;;;;;;6234199;22;19903;-93
2022/03/27 19:35:24;;;;;;;;;;;13.50;72.90;;;;;;6202993;23;19911;-92
2022/03/27 19:41:25;;;;;;;;;;;13.30;73.40;;;;;;6223145;23;19978;-92
2022/03/27 19:47:00;;;;;;;;;;;13.20;74.10;;;;;;6209396;23;19930;-92
2022/03/27 19:52:48;;;;;;;;;;;13.00;74.70;;;;;;6225012;23;19904;-95
2022/03/27 19:55:22;;;;;;;;;;;12.90;75.00;;;;;;6198860;23;20328;-92
2022/03/27 20:00:42;;;;;;;;;;;12.80;75.60;;;;;;6209814;23;19932;-95
2022/03/27 20:03:25;;;;;;;;;;;12.70;75.80;;;;;;6199352;23;19974;-93
2022/03/27 20:08:47;;;;;;;;;;;12.60;76.30;;;;;;6210540;23;20337;-91
2022/03/27 20:11:49;;;;;;;;;;;;;;;;;;;;;
2022/03/27 20:14:43;;;;;;;;;;;12.50;76.70;;;;;;6222076;23;19939;-92
2022/03/27 20:23:48;;;;;;;;;;;;;;;;;;;;;
2022/03/27 20:26:40;;;;;;;;;;;12.20;77.60;;;;;;6135136;23;19933;-91
2022/03/27 20:29:39;;;;;;;;;;;12.10;77.70;;;;;;6132197;23;20280;-93
2022/03/27 20:32:27;;;;;;;;;;;12.10;77.90;;;;;;6132441;23;19909;-93
2022/03/27 20:35:10;;;;;;;;;;;;;;;;;;;;;
2022/03/27 20:38:12;;;;;;;;;;;;;;;;;;;;;
2022/03/27 20:43:55;;;;;;;;;;;11.80;78.60;;;;;;6133668;23;19936;-93
2022/03/27 20:56:37;;;;;;;;;;;;;;;;;;;;;
2022/03/27 21:06:08;;;;;;;;;;;11.50;79.60;;;;;;6164141;23;20347;-94
2022/03/27 21:08:38;;;;;;;;;;;11.50;79.70;;;;;;6212520;23;19935;-93
2022/03/27 21:14:33;;;;;;;;;;;;;;;;;;;;;
2022/03/27 21:17:08;;;;;;;;;;;11.40;79.80;;;;;;6199504;23;19931;-94
2022/03/27 21:25:36;;;;;;;;;;;;;;;;;;;;;
2022/03/27 21:28:18;;;;;;;;;;;11.50;79.20;;;;;;6194735;23;19931;-94
2022/03/27 21:30:43;;;;;;;;;;;11.50;79.10;;;;;;6188293;23;19955;-95
2022/03/27 21:33:22;;;;;;;;;;;;;;;;;;;;;
2022/03/27 21:35:59;;;;;;;;;;;11.50;79.10;;;;;;6236400;23;19904;-93
2022/03/27 21:39:05;;;;;;;;;;;;;;;;;;;;;
2022/03/27 21:41:58;;;;;;;;;;;11.60;78.90;;;;;;6239732;23;19908;-91
2022/03/27 21:47:42;;;;;;;;;;;11.60;78.90;;;;;;6224918;23;19918;-90
2022/03/27 21:50:28;;;;;;;;;;;11.60;78.90;;;;;;6221754;23;19911;-92
2022/03/27 21:53:07;;;;;;;;;;;11.60;78.70;;;;;;6195960;23;19961;-92
2022/03/27 21:58:37;;;;;;;;;;;;;;;;;;;;;
2022/03/27 22:04:15;;;;;;;;;;;11.70;78.30;;;;;;6227134;23;19943;-91
2022/03/27 22:07:10;;;;;;;;;;;11.70;78.30;;;;;;6220261;23;19916;-91
2022/03/27 22:10:09;;;;;;;;;;;;;;;;;;;;;
2022/03/27 22:13:25;;;;;;;;;;;;;;;;;;;;;
2022/03/27 22:16:11;;;;;;;;;;;11.70;78.20;;;;;;6215469;23;19904;-93
2022/03/27 22:19:06;;;;;;;;;;;11.70;78.30;;;;;;6222238;23;19904;-93
2022/03/27 22:21:54;;;;;;;;;;;11.60;78.30;;;;;;6193315;23;20341;-93
2022/03/27 22:27:55;;;;;;;;;;;11.70;78.30;;;;;;6205168;23;19904;-91
2022/03/27 22:30:57;;;;;;;;;;;11.60;78.60;;;;;;6171637;23;19935;-93
2022/03/27 22:33:41;;;;;;;;;;;;;;;;;;;;;
2022/03/27 22:36:30;;;;;;;;;;;;;;;;;;;;;
2022/03/27 22:39:07;;;;;;;;;;;11.30;79.40;;;;;;6191120;23;19975;-91
2022/03/27 22:51:09;;;;;;;;;;;11.10;80.30;;;;;;6214099;23;19936;-91
2022/03/27 22:57:04;;;;;;;;;;;;;;;;;;;;;
2022/03/27 23:00:02;;;;;;;;;;;11.00;80.50;;;;;;6210792;23;19995;-90
2022/03/27 23:06:21;;;;;;;;;;;10.90;80.80;;;;;;6157231;23;19912;-93
2022/03/27 23:08:53;;;;;;;;;;;10.90;80.70;;;;;;6188873;23;19976;-92
2022/03/27 23:11:28;;;;;;;;;;;10.80;81.00;;;;;;6188098;23;19956;-91
2022/03/27 23:14:17;;;;;;;;;;;10.80;80.90;;;;;;6187927;23;19904;-93
2022/03/27 23:16:50;;;;;;;;;;;10.80;81.30;;;;;;6208631;23;19908;-92
2022/03/27 23:19:36;;;;;;;;;;;10.70;81.30;;;;;;6215487;23;19912;-93
2022/03/27 23:45:31;;;;;;;;;;;;;;;;;;;;;
2022/03/27 23:48:12;;;;;;;;;;;;;;;;;;;;;
2022/03/27 23:51:02;;;;;;;;;;;10.40;82.80;;;;;;5107635;28;19972;-94
